createdAt,value
2023-04-16T00:01:33.178Z,78.20
2023-04-16T00:04:30.997Z,78.20
2023-04-16T00:07:29.123Z,78.20
2023-04-16T00:10:26.590Z,78.20
2023-04-16T00:13:24.267Z,78.19
2023-04-16T00:16:21.783Z,78.20
2023-04-16T00:19:19.465Z,78.16
2023-04-16T00:22:16.933Z,78.10
2023-04-16T00:25:14.551Z,78.10
2023-04-16T00:28:12.123Z,78.10
2023-04-16T00:31:09.647Z,78.07
2023-04-16T00:34:07.346Z,78.10
2023-04-16T00:37:04.729Z,78.06
2023-04-16T00:40:02.277Z,77.97
2023-04-16T00:42:59.712Z,77.90
2023-04-16T00:45:57.437Z,77.86
2023-04-16T00:48:55.133Z,77.83
2023-04-16T00:51:52.592Z,77.89
2023-04-16T00:54:50.332Z,77.90
2023-04-16T00:57:47.779Z,77.93
2023-04-16T01:00:45.661Z,78.00
2023-04-16T01:03:43.329Z,78.04
2023-04-16T01:06:41.304Z,78.10
2023-04-16T01:09:39.049Z,78.19
2023-04-16T01:12:36.546Z,78.22
2023-04-16T01:15:34.359Z,78.28
2023-04-16T01:18:31.802Z,78.31
2023-04-16T01:21:29.365Z,78.31
2023-04-16T01:24:26.797Z,78.32
2023-04-16T01:27:24.424Z,78.38
2023-04-16T01:30:21.807Z,78.41
2023-04-16T01:33:19.601Z,78.49
2023-04-16T01:36:17.185Z,78.55
2023-04-16T01:39:16.535Z,78.64
2023-04-16T01:42:14.390Z,78.74
2023-04-16T01:45:11.794Z,78.84
2023-04-16T01:48:09.510Z,78.91
2023-04-16T01:51:06.965Z,79.00
2023-04-16T01:54:04.604Z,79.06
2023-04-16T01:57:03.462Z,79.16
2023-04-16T02:00:00.894Z,79.20
2023-04-16T02:02:58.723Z,79.22
2023-04-16T02:05:56.383Z,79.29
2023-04-16T02:08:54.294Z,79.31
2023-04-16T02:11:52.059Z,79.34
2023-04-16T02:14:49.584Z,79.40
2023-04-16T02:17:49.044Z,79.45
2023-04-16T02:20:46.524Z,79.55
2023-04-16T02:23:47.841Z,79.57
2023-04-16T02:26:45.542Z,79.59
2023-04-16T02:29:43.382Z,79.64
2023-04-16T02:32:41.098Z,79.62
2023-04-16T02:35:38.561Z,79.60
2023-04-16T02:38:38.416Z,79.65
2023-04-16T02:41:36.232Z,79.70
2023-04-16T02:44:33.847Z,79.75
2023-04-16T02:47:31.288Z,79.80
2023-04-16T02:50:28.946Z,79.82
2023-04-16T02:53:26.393Z,79.88
2023-04-16T02:56:24.109Z,79.90
2023-04-16T02:59:21.745Z,79.98
2023-04-16T03:02:19.204Z,80.00
2023-04-16T03:05:17.008Z,80.03
2023-04-16T03:08:14.416Z,80.07
2023-04-16T03:11:12.038Z,80.10
2023-04-16T03:14:09.466Z,80.17
2023-04-16T03:17:07.554Z,80.25
2023-04-16T03:20:05.740Z,80.36
2023-04-16T03:23:03.166Z,80.45
2023-04-16T03:26:00.880Z,80.50
2023-04-16T03:28:58.314Z,80.54
2023-04-16T03:31:55.927Z,80.60
2023-04-16T03:34:53.311Z,80.60
2023-04-16T03:37:52.130Z,80.61
2023-04-16T03:40:49.505Z,80.63
2023-04-16T03:43:47.136Z,80.69
2023-04-16T03:46:45.752Z,80.70
2023-04-16T03:49:43.330Z,80.70
2023-04-16T03:52:41.293Z,80.73
2023-04-16T03:55:38.705Z,80.71
2023-04-16T03:58:36.409Z,80.73
2023-04-16T04:01:33.814Z,80.71
2023-04-16T04:04:31.613Z,80.70
2023-04-16T04:07:29.080Z,80.70
2023-04-16T04:10:26.747Z,80.71
2023-04-16T04:13:24.430Z,80.73
2023-04-16T04:16:21.882Z,80.79
2023-04-16T04:19:19.526Z,80.81
2023-04-16T04:22:16.959Z,80.87
2023-04-16T04:25:14.590Z,80.90
2023-04-16T04:28:11.992Z,80.91
2023-04-16T04:31:09.694Z,80.93
2023-04-16T04:34:07.155Z,80.91
2023-04-16T04:37:04.863Z,80.90
2023-04-16T04:40:02.291Z,80.90
2023-04-16T04:42:59.821Z,80.89
2023-04-16T04:45:57.469Z,80.90
2023-04-16T04:48:54.969Z,80.87
2023-04-16T04:51:52.701Z,80.80
2023-04-16T04:54:50.131Z,80.77
2023-04-16T04:57:47.738Z,80.70
2023-04-16T05:00:45.125Z,80.69
2023-04-16T05:03:42.969Z,80.69
2023-04-16T05:06:40.410Z,80.68
2023-04-16T05:09:38.134Z,80.65
2023-04-16T05:12:36.027Z,80.59
2023-04-16T05:15:33.468Z,80.50
2023-04-16T05:18:31.507Z,80.50
2023-04-16T05:21:28.942Z,80.43
2023-04-16T05:24:26.790Z,80.32
2023-04-16T05:27:24.305Z,80.25
2023-04-16T05:30:22.056Z,80.21
2023-04-16T05:33:19.492Z,80.19
2023-04-16T05:36:17.302Z,80.19
2023-04-16T05:39:15.165Z,80.19
2023-04-16T05:42:12.607Z,80.17
2023-04-16T05:45:10.708Z,80.13
2023-04-16T05:48:08.129Z,80.04
2023-04-16T05:51:05.809Z,80.01
2023-04-16T05:54:03.237Z,79.99
2023-04-16T05:57:01.469Z,79.91
2023-04-16T05:59:58.919Z,79.80
2023-04-16T06:02:56.722Z,79.72
2023-04-16T06:05:54.871Z,79.63
2023-04-16T06:08:52.562Z,79.41
2023-04-16T06:11:50.899Z,79.24
2023-04-16T06:14:48.283Z,79.08
2023-04-16T06:17:46.117Z,78.94
2023-04-16T06:20:43.894Z,78.78
2023-04-16T06:23:41.318Z,78.59
2023-04-16T06:26:39.012Z,78.44
2023-04-16T06:29:41.139Z,78.26
2023-04-16T06:32:39.443Z,78.14
2023-04-16T06:35:37.010Z,78.04
2023-04-16T06:38:34.986Z,77.82
2023-04-16T06:41:32.445Z,77.55
2023-04-16T06:44:30.134Z,77.28
2023-04-16T06:47:28.537Z,77.13
2023-04-16T06:50:26.856Z,76.92
2023-04-16T06:53:24.541Z,76.56
2023-04-16T06:56:21.948Z,76.45
2023-04-16T06:59:19.685Z,76.21
2023-04-16T07:02:17.251Z,75.97
2023-04-16T07:05:15.107Z,75.80
2023-04-16T07:08:12.882Z,75.50
2023-04-16T07:11:10.471Z,75.19
2023-04-16T07:14:08.599Z,74.80
2023-04-16T07:17:06.034Z,74.69
2023-04-16T07:20:03.696Z,74.53
2023-04-16T07:23:01.157Z,74.26
2023-04-16T07:25:58.880Z,73.98
2023-04-16T07:28:56.319Z,73.71
2023-04-16T07:31:54.071Z,73.33
2023-04-16T07:34:51.980Z,73.33
2023-04-16T07:37:49.365Z,73.19
2023-04-16T07:40:47.028Z,72.92
2023-04-16T07:43:44.406Z,72.62
2023-04-16T07:46:46.982Z,72.36
2023-04-16T07:49:45.258Z,72.11
2023-04-16T07:52:44.128Z,71.78
2023-04-16T07:55:41.549Z,71.57
2023-04-16T07:58:39.210Z,71.55
2023-04-16T08:01:37.012Z,71.50
2023-04-16T08:04:34.564Z,71.40
2023-04-16T08:07:34.492Z,71.21
2023-04-16T08:10:32.390Z,70.82
2023-04-16T08:13:31.751Z,70.32
2023-04-16T08:16:30.538Z,69.61
2023-04-16T08:19:28.286Z,69.15
2023-04-16T08:22:26.802Z,68.50
2023-04-16T08:25:24.884Z,67.93
2023-04-16T08:28:22.535Z,67.35
2023-04-16T08:31:20.012Z,66.50
2023-04-16T08:34:17.687Z,65.47
2023-04-16T08:37:15.376Z,64.85
2023-04-16T08:40:12.812Z,64.65
2023-04-16T08:43:10.425Z,63.69
2023-04-16T08:46:07.911Z,62.76
2023-04-16T08:49:05.510Z,61.66
2023-04-16T08:52:02.953Z,60.77
2023-04-16T08:55:00.730Z,60.48
2023-04-16T08:57:58.385Z,60.51
2023-04-16T09:00:55.794Z,60.59
2023-04-16T09:03:53.819Z,60.64
2023-04-16T09:06:51.473Z,60.26
2023-04-16T09:09:49.139Z,60.31
2023-04-16T09:12:46.574Z,59.92
2023-04-16T09:15:45.323Z,59.85
2023-04-16T09:18:42.786Z,59.73
2023-04-16T09:21:40.470Z,59.49
2023-04-16T09:24:38.986Z,59.34
2023-04-16T09:27:36.397Z,59.08
2023-04-16T09:30:35.058Z,58.95
2023-04-16T09:33:34.474Z,58.90
2023-04-16T09:36:35.212Z,58.56
2023-04-16T09:39:33.068Z,58.58
2023-04-16T09:42:32.139Z,58.63
2023-04-16T09:45:29.830Z,58.47
2023-04-16T09:48:27.707Z,58.50
2023-04-16T09:51:27.156Z,58.91
2023-04-16T09:54:24.606Z,58.56
2023-04-16T09:57:22.514Z,58.47
2023-04-16T10:00:19.972Z,58.38
2023-04-16T10:03:18.243Z,57.46
2023-04-16T10:06:16.023Z,56.42
2023-04-16T10:09:13.475Z,55.85
2023-04-16T10:12:12.963Z,55.64
2023-04-16T10:15:11.115Z,55.53
2023-04-16T10:18:08.922Z,55.45
2023-04-16T10:21:06.384Z,55.72
2023-04-16T10:24:04.749Z,55.56
2023-04-16T10:27:02.349Z,55.07
2023-04-16T10:30:00.090Z,54.98
2023-04-16T10:33:00.631Z,55.10
2023-04-16T10:36:07.049Z,55.20
2023-04-16T10:39:05.522Z,55.10
2023-04-16T10:42:03.147Z,55.02
2023-04-16T10:45:01.035Z,54.55
2023-04-16T10:47:59.388Z,54.77
2023-04-16T10:51:00.219Z,55.24
2023-04-16T10:53:58.055Z,54.97
2023-04-16T10:56:55.514Z,54.63
2023-04-16T10:59:53.230Z,54.63
2023-04-16T11:02:50.847Z,54.82
2023-04-16T11:05:48.426Z,55.22
2023-04-16T11:08:54.063Z,54.98
2023-04-16T11:11:52.686Z,54.98
2023-04-16T11:14:51.780Z,54.83
2023-04-16T11:17:50.658Z,54.26
2023-04-16T11:20:48.181Z,53.42
2023-04-16T11:23:45.937Z,52.54
2023-04-16T11:26:43.385Z,51.75
2023-04-16T11:29:41.059Z,50.76
2023-04-16T11:32:39.763Z,50.57
2023-04-16T11:35:37.588Z,50.38
2023-04-16T11:38:36.622Z,50.52
2023-04-16T11:41:34.097Z,50.53
2023-04-16T11:44:31.939Z,50.88
2023-04-16T11:47:29.445Z,51.16
2023-04-16T11:50:27.742Z,51.40
2023-04-16T11:53:25.211Z,51.42
2023-04-16T11:56:22.878Z,51.84
2023-04-16T11:59:20.492Z,52.33
2023-04-16T12:02:17.970Z,52.83
2023-04-16T12:05:16.171Z,53.34
2023-04-16T12:08:13.667Z,53.58
2023-04-16T12:11:11.437Z,53.64
2023-04-16T12:14:09.430Z,53.74
2023-04-16T12:17:07.199Z,53.92
2023-04-16T12:20:06.265Z,54.39
2023-04-16T12:23:04.072Z,54.86
2023-04-16T12:26:03.002Z,54.97
2023-04-16T12:29:00.671Z,55.10
2023-04-16T12:31:58.243Z,55.16
2023-04-16T12:34:55.706Z,55.31
2023-04-16T12:37:53.414Z,55.48
2023-04-16T12:40:51.189Z,55.21
2023-04-16T12:43:48.780Z,55.34
2023-04-16T12:46:46.615Z,55.06
2023-04-16T12:49:44.684Z,54.79
2023-04-16T12:52:42.277Z,54.70
2023-04-16T12:55:39.707Z,54.71
2023-04-16T12:58:37.731Z,54.89
2023-04-16T13:01:39.405Z,55.11
2023-04-16T13:04:37.080Z,55.24
2023-04-16T13:07:34.918Z,55.17
2023-04-16T13:10:32.532Z,55.21
2023-04-16T13:13:30.388Z,55.07
2023-04-16T13:16:28.162Z,54.76
2023-04-16T13:19:26.231Z,54.64
2023-04-16T13:22:23.635Z,54.34
2023-04-16T13:25:21.354Z,53.77
2023-04-16T13:28:19.514Z,53.56
2023-04-16T13:31:20.263Z,53.13
2023-04-16T13:34:18.125Z,52.88
2023-04-16T13:37:16.039Z,52.76
2023-04-16T13:40:13.803Z,52.46
2023-04-16T13:43:13.783Z,51.97
2023-04-16T13:46:11.592Z,51.96
2023-04-16T13:49:09.525Z,51.88
2023-04-16T13:52:07.931Z,52.39
2023-04-16T13:55:06.209Z,52.69
2023-04-16T13:58:03.697Z,52.92
2023-04-16T14:01:01.855Z,53.01
2023-04-16T14:04:02.070Z,53.15
2023-04-16T14:06:59.888Z,52.85
2023-04-16T14:09:57.456Z,52.86
2023-04-16T14:12:55.089Z,52.61
2023-04-16T14:15:52.756Z,52.58
2023-04-16T14:18:52.150Z,52.82
2023-04-16T14:21:49.942Z,52.87
2023-04-16T14:24:47.456Z,53.17
2023-04-16T14:27:46.040Z,53.22
2023-04-16T14:30:43.746Z,53.39
2023-04-16T14:33:42.125Z,53.57
2023-04-16T14:36:40.155Z,54.03
2023-04-16T14:39:39.727Z,54.41
2023-04-16T14:42:38.050Z,54.49
2023-04-16T14:45:38.282Z,54.42
2023-04-16T14:48:36.274Z,54.51
2023-04-16T14:51:34.122Z,54.81
2023-04-16T14:54:31.911Z,54.94
2023-04-16T14:57:29.496Z,55.05
2023-04-16T15:00:28.241Z,54.96
2023-04-16T15:03:26.644Z,54.97
2023-04-16T15:06:24.367Z,55.15
2023-04-16T15:12:41.015Z,56.43
2023-04-16T15:15:38.874Z,57.16
2023-04-16T15:18:36.753Z,57.99
2023-04-16T15:21:34.651Z,58.24
2023-04-16T15:24:32.523Z,58.43
2023-04-16T15:27:30.863Z,58.93
2023-04-16T15:30:28.677Z,59.13
2023-04-16T15:33:26.482Z,59.50
2023-04-16T15:36:26.322Z,59.52
2023-04-16T15:39:24.499Z,59.38
2023-04-16T15:42:23.086Z,59.58
2023-04-16T15:45:22.226Z,59.88
2023-04-16T15:48:20.796Z,60.09
2023-04-16T15:51:19.168Z,60.27
2023-04-16T15:54:18.563Z,60.55
2023-04-16T15:57:16.854Z,61.14
2023-04-16T16:00:17.357Z,61.22
2023-04-16T16:03:16.751Z,61.48
2023-04-16T16:06:18.083Z,61.78
2023-04-16T16:09:16.400Z,62.11
2023-04-16T16:12:14.681Z,62.20
2023-04-16T16:15:12.415Z,62.46
2023-04-16T16:18:11.056Z,62.81
2023-04-16T16:21:09.475Z,63.23
2023-04-16T16:24:08.618Z,63.55
2023-04-16T16:27:06.798Z,63.78
2023-04-16T16:30:06.951Z,64.14
2023-04-16T16:33:05.523Z,64.44
2023-04-16T16:36:03.731Z,64.83
2023-04-16T16:39:03.051Z,65.13
2023-04-16T16:42:01.535Z,65.40
2023-04-16T16:45:00.864Z,65.81
2023-04-16T16:47:59.783Z,66.20
2023-04-16T16:50:59.370Z,66.48
2023-04-16T16:53:57.517Z,66.72
2023-04-16T16:56:55.002Z,66.87
2023-04-16T16:59:53.399Z,66.94
2023-04-16T17:02:52.652Z,67.07
2023-04-16T17:05:52.205Z,67.33
2023-04-16T17:08:51.206Z,67.48
2023-04-16T17:11:48.704Z,67.80
2023-04-16T17:14:47.498Z,68.03
2023-04-16T17:17:45.948Z,68.20
2023-04-16T17:20:44.130Z,68.42
2023-04-16T17:23:44.588Z,68.65
2023-04-16T17:26:45.272Z,68.89
2023-04-16T17:29:43.973Z,69.07
2023-04-16T17:32:41.602Z,69.25
2023-04-16T17:35:39.919Z,69.34
2023-04-16T17:38:37.937Z,69.57
2023-04-16T17:41:36.352Z,69.80
2023-04-16T17:44:34.429Z,69.96
2023-04-16T17:47:35.144Z,70.20
2023-04-16T17:50:33.940Z,70.32
2023-04-16T17:53:32.555Z,70.49
2023-04-16T17:56:30.967Z,70.57
2023-04-16T17:59:29.764Z,70.68
2023-04-16T18:02:28.365Z,70.81
2023-04-16T18:05:26.703Z,71.00
2023-04-16T18:08:25.323Z,71.12
2023-04-16T18:11:24.752Z,71.28
2023-04-16T18:14:24.176Z,71.40
2023-04-16T18:17:24.355Z,71.47
2023-04-16T18:20:24.247Z,71.66
2023-04-16T18:23:23.465Z,71.76
2023-04-16T18:26:29.503Z,72.03
2023-04-16T18:29:28.807Z,72.20
2023-04-16T18:32:30.886Z,72.31
2023-04-16T18:35:31.509Z,72.39
2023-04-16T18:38:30.737Z,72.47
2023-04-16T18:41:28.374Z,72.57
2023-04-16T18:44:36.992Z,72.65
2023-04-16T18:47:37.623Z,72.74
2023-04-16T18:50:36.631Z,72.89
2023-04-16T18:53:37.780Z,73.04
2023-04-16T18:56:36.584Z,73.18
2023-04-16T18:59:35.257Z,73.27
2023-04-16T19:02:36.378Z,73.34
2023-04-16T19:05:36.018Z,73.45
2023-04-16T19:08:34.184Z,73.50
2023-04-16T19:11:33.869Z,73.59
2023-04-16T19:14:33.014Z,73.69
2023-04-16T19:17:34.614Z,73.79
2023-04-16T19:20:34.097Z,73.94
2023-04-16T19:23:34.915Z,74.03
2023-04-16T19:26:33.295Z,74.21
2023-04-16T19:29:32.703Z,74.23
2023-04-16T19:32:32.855Z,74.29
2023-04-16T19:35:30.976Z,74.31
2023-04-16T19:38:28.784Z,74.38
2023-04-16T19:41:30.809Z,74.48
2023-04-16T19:44:29.951Z,74.42
2023-04-16T19:47:28.418Z,74.43
2023-04-16T19:50:26.441Z,74.53
2023-04-16T19:53:25.402Z,74.56
2023-04-16T19:56:24.261Z,74.53
2023-04-16T19:59:22.276Z,74.60
2023-04-16T20:02:24.812Z,74.63
2023-04-16T20:05:22.812Z,74.70
2023-04-16T20:08:22.248Z,74.72
2023-04-16T20:11:19.901Z,74.77
2023-04-16T20:14:18.852Z,74.86
2023-04-16T20:17:19.052Z,75.03
2023-04-16T20:20:19.444Z,75.10
2023-04-16T20:23:18.413Z,75.23
2023-04-16T20:26:17.096Z,75.31
2023-04-16T20:29:15.001Z,75.42
2023-04-16T20:32:13.349Z,75.50
2023-04-16T20:35:11.856Z,75.57
2023-04-16T20:38:09.634Z,75.64
2023-04-16T20:41:20.329Z,75.71
2023-04-16T20:44:19.237Z,75.78
2023-04-16T20:47:17.251Z,75.86
2023-04-16T20:50:15.643Z,75.90
2023-04-16T20:53:13.093Z,76.00
2023-04-16T20:56:15.062Z,76.03
2023-04-16T20:59:13.514Z,76.10
2023-04-16T21:02:11.002Z,76.15
2023-04-16T21:05:10.791Z,76.18
2023-04-16T21:08:08.268Z,76.22
2023-04-16T21:11:06.104Z,76.29
2023-04-16T21:14:03.850Z,76.39
2023-04-16T21:17:03.288Z,76.46
2023-04-16T21:20:00.953Z,76.50
2023-04-16T21:22:58.716Z,76.57
2023-04-16T21:25:56.422Z,76.61
2023-04-16T21:28:55.153Z,76.70
2023-04-16T21:31:53.318Z,76.72
2023-04-16T21:34:52.013Z,76.72
2023-04-16T21:37:49.715Z,76.78
2023-04-16T21:40:50.625Z,76.87
2023-04-16T21:43:48.350Z,76.96
2023-04-16T21:46:46.107Z,77.00
2023-04-16T21:49:43.608Z,77.01
2023-04-16T21:52:46.984Z,77.07
2023-04-16T21:55:44.441Z,77.14
2023-04-16T21:58:42.179Z,77.15
2023-04-16T22:01:39.958Z,77.21
2023-04-16T22:04:40.325Z,77.29
2023-04-16T22:07:38.144Z,77.32
2023-04-16T22:10:35.848Z,77.39
2023-04-16T22:13:33.587Z,77.42
2023-04-16T22:16:31.185Z,77.45
2023-04-16T22:19:28.907Z,77.49
2023-04-16T22:22:26.360Z,77.51
2023-04-16T22:25:24.150Z,77.56
2023-04-16T22:28:21.802Z,77.56
2023-04-16T22:31:19.213Z,77.60
2023-04-16T22:34:16.782Z,77.68
2023-04-16T22:37:14.158Z,77.75
2023-04-16T22:40:12.073Z,77.78
2023-04-16T22:43:09.479Z,77.82
2023-04-16T22:46:07.242Z,77.90
2023-04-16T22:49:04.714Z,77.91
2023-04-16T22:52:03.011Z,77.99
2023-04-16T22:55:00.730Z,78.00
2023-04-16T22:57:58.125Z,78.10
2023-04-16T23:00:57.049Z,78.10
2023-04-16T23:03:54.563Z,78.18
2023-04-16T23:06:52.333Z,78.21
2023-04-16T23:09:49.832Z,78.28
2023-04-16T23:12:47.405Z,78.32
2023-04-16T23:15:46.357Z,78.38
2023-04-16T23:18:43.781Z,78.39
2023-04-16T23:21:41.437Z,78.47
2023-04-16T23:24:38.876Z,78.50
2023-04-16T23:27:36.430Z,78.52
2023-04-16T23:30:33.937Z,78.59
2023-04-16T23:33:31.589Z,78.65
2023-04-16T23:36:29.215Z,78.69
2023-04-16T23:39:27.293Z,78.73
2023-04-16T23:42:25.082Z,78.83
2023-04-16T23:45:22.530Z,78.94
2023-04-16T23:48:20.377Z,78.98
2023-04-16T23:51:17.819Z,79.03
2023-04-16T23:54:15.387Z,79.09
2023-04-16T23:57:13.090Z,79.13
